Time;durP1;ratioP1;P1;durP2;ratioP2;P2;SDS_P1;SDS_P2;PMS_P1;PMS_P2;Temp;Humidity;BMP_temperature;BMP_pressure;BME280_temperature;BME280_humidity;BME280_pressure;Samples;Min_cycle;Max_cycle;Signal;HPM_P1;HPM_P2
2022/04/13 09:49:22;;;;;;;18.27;6.68;;;;;;;;;;6212831;23;20057;-90
2022/04/13 09:58:49;;;;;;;11.48;6.35;;;;;;;;;;6211224;22;20052;-90
2022/04/13 10:01:15;;;;;;;11.02;6.85;;;;;;;;;;6161986;23;20017;-90
2022/04/13 10:04:29;;;;;;;13.00;6.75;;;;;;;;;;6160930;23;20023;-92
2022/04/13 10:07:20;;;;;;;13.68;6.10;;;;;;;;;;6180994;23;20088;-91
2022/04/13 10:12:53;;;;;;;13.15;6.85;;;;;;;;;;6165602;23;20401;-90
2022/04/13 10:19:20;;;;;;;;;;;;;;;;;;;;;
2022/04/13 10:21:51;;;;;;;10.65;6.05;;;;;;;;;;6084700;23;20014;-89
2022/04/13 10:24:27;;;;;;;8.73;3.90;;;;;;;;;;6038776;23;20577;-90
2022/04/13 10:30:43;;;;;;;11.90;4.70;;;;;;;;;;6046699;23;20105;-92
2022/04/13 10:33:48;;;;;;;12.80;4.45;;;;;;;;;;6057620;23;20096;-91
2022/04/13 10:36:17;;;;;;;7.63;3.38;;;;;;;;;;6008977;23;20472;-90
2022/04/13 10:52:12;;;;;;;7.65;3.30;;;;;;;;;;6181405;23;20108;-92
2022/04/13 10:55:27;;;;;;;6.35;3.10;;;;;;;;;;6060692;23;20033;-90
2022/04/13 10:57:59;;;;;;;5.68;3.00;;;;;;;;;;6036635;23;20019;-90
2022/04/13 11:04:27;;;;;;;5.57;2.85;;;;;;;;;;6019836;23;20095;-92
2022/04/13 11:07:13;;;;;;;6.20;2.35;;;;;;;;;;5927264;24;20028;-89
2022/04/13 11:09:43;;;;;;;6.07;2.58;;;;;;;;;;5902433;24;20491;-90
2022/04/13 11:15:18;;;;;;;8.45;3.08;;;;;;;;;;6039813;23;20030;-92
2022/04/13 11:28:12;;;;;;;9.98;3.83;;;;;;;;;;6046778;23;20087;-91
2022/04/13 11:33:58;;;;;;;6.80;3.90;;;;;;;;;;5967365;23;20023;-89
2022/04/13 11:36:28;;;;;;;9.20;4.75;;;;;;;;;;6037832;23;20063;-92
2022/04/13 11:38:55;;;;;;;12.23;4.72;;;;;;;;;;6037809;23;20065;-90
2022/04/13 11:41:24;;;;;;;7.30;3.85;;;;;;;;;;6037287;23;20037;-91
2022/04/13 11:43:50;;;;;;;9.57;4.30;;;;;;;;;;6037992;23;20101;-91
2022/04/13 11:46:36;;;;;;;11.85;4.03;;;;;;;;;;6039059;23;20419;-89
2022/04/13 11:49:07;;;;;;;8.93;4.20;;;;;;;;;;6038784;23;20015;-91
2022/04/13 11:52:11;;;;;;;9.35;3.10;;;;;;;;;;6037900;23;20050;-89
2022/04/13 11:55:08;;;;;;;10.43;3.42;;;;;;;;;;5990982;23;20101;-90
2022/04/13 11:58:14;;;;;;;7.97;2.88;;;;;;;;;;6036565;23;20677;-91
2022/04/13 12:01:07;;;;;;;7.03;2.65;;;;;;;;;;6036474;23;20099;-91
2022/04/13 12:03:56;;;;;;;5.75;3.28;;;;;;;;;;6064483;23;20021;-90
2022/04/13 12:09:23;;;;;;;7.18;2.60;;;;;;;;;;5977925;23;20106;-90
2022/04/13 12:15:40;;;;;;;6.25;3.10;;;;;;;;;;6061577;23;20046;-90
2022/04/13 12:18:15;;;;;;;7.78;4.32;;;;;;;;;;6012986;23;20472;-90
2022/04/13 12:21:04;;;;;;;8.25;3.60;;;;;;;;;;6017129;23;20094;-92
2022/04/13 12:23:30;;;;;;;8.00;4.22;;;;;;;;;;6026391;23;20030;-91
2022/04/13 12:25:57;;;;;;;13.05;4.20;;;;;;;;;;6013219;23;20042;-92
2022/04/13 12:39:32;;;;;;;5.80;2.40;;;;;;;;;;6180217;23;20049;-90
2022/04/13 12:42:25;;;;;;;8.05;2.80;;;;;;;;;;6160856;23;20075;-92
2022/04/13 12:44:58;;;;;;;8.98;4.30;;;;;;;;;;6106808;23;20630;-89
2022/04/13 12:47:24;;;;;;;9.38;4.95;;;;;;;;;;6130359;23;20049;-89
2022/04/13 12:50:06;;;;;;;10.77;5.00;;;;;;;;;;6131039;23;20079;-90
2022/04/13 12:52:39;;;;;;;21.00;5.97;;;;;;;;;;6105840;23;20016;-89
2022/04/13 12:56:16;;;;;;;;;;;;;;;;;;;;;
2022/04/13 12:59:05;;;;;;;11.05;5.50;;;;;;;;;;6180719;23;20604;-91
2022/04/13 13:01:40;;;;;;;11.07;5.00;;;;;;;;;;6129616;23;20522;-90
2022/04/13 13:04:12;;;;;;;10.15;4.57;;;;;;;;;;6130131;23;20013;-92
2022/04/13 13:06:58;;;;;;;9.35;2.90;;;;;;;;;;6132665;23;20017;-91
2022/04/13 13:09:31;;;;;;;11.18;2.50;;;;;;;;;;6130333;23;20009;-89
2022/04/13 13:11:59;;;;;;;3.75;1.40;;;;;;;;;;6128260;23;20052;-91
2022/04/13 13:14:46;;;;;;;4.55;1.52;;;;;;;;;;6129603;23;20017;-90
2022/04/13 13:17:22;;;;;;;4.40;1.15;;;;;;;;;;6130053;23;20013;-90
2022/04/13 13:20:14;;;;;;;6.38;1.10;;;;;;;;;;6130259;23;20104;-92
2022/04/13 13:22:57;;;;;;;4.50;1.25;;;;;;;;;;6179759;23;20049;-90
2022/04/13 13:25:29;;;;;;;9.77;1.50;;;;;;;;;;6133062;23;20044;-92
2022/04/13 13:28:03;;;;;;;8.57;1.23;;;;;;;;;;6185082;23;20013;-90
2022/04/13 13:30:29;;;;;;;8.57;1.55;;;;;;;;;;6133630;23;20017;-91
2022/04/13 13:32:56;;;;;;;6.18;1.27;;;;;;;;;;6133895;23;20023;-90
2022/04/13 13:35:47;;;;;;;5.60;1.40;;;15.60;99.90;;;;;;6132445;23;20059;-91
2022/04/13 13:38:24;;;;;;;7.15;1.50;;;17.80;95.30;;;;;;6134849;23;20032;-93
2022/04/13 13:41:21;;;;;;;;;;;;;;;;;;;;;
2022/04/13 13:44:48;;;;;;;6.72;1.42;;;17.90;93.60;;;;;;6149782;23;20088;-91
2022/04/13 13:47:25;;;;;;;4.90;1.35;;;;;;;;;;6151149;23;20016;-92
2022/04/13 13:49:51;;;;;;;7.68;1.48;;;;;;;;;;6156408;23;20013;-91
2022/04/13 13:52:18;;;;;;;7.20;1.50;;;;;;;;;;6156358;23;20051;-91
2022/04/13 13:54:47;;;;;;;8.25;1.60;;;;;;;;;;6129341;23;20021;-91
2022/04/13 13:57:13;;;;;;;8.60;1.70;;;;;;;;;;6131390;23;20327;-90
2022/04/13 13:59:40;;;;;;;6.22;1.70;;;;;;;;;;6129777;23;20074;-90
2022/04/13 14:02:17;;;;;;;6.47;1.70;;;;;;;;;;6161531;23;20474;-91
2022/04/13 14:04:50;;;;;;;7.82;1.90;;;;;;;;;;6154892;23;20128;-91
2022/04/13 14:07:18;;;;;;;11.23;2.30;;;;;;;;;;6153123;23;20761;-91
2022/04/13 14:10:15;;;;;;;11.75;2.20;;;;;;;;;;6153476;23;20096;-91
2022/04/13 14:12:46;;;;;;;10.55;2.42;;;;;;;;;;6128917;23;20469;-91
2022/04/13 14:15:26;;;;;;;10.18;2.95;;;;;;;;;;6153283;23;20476;-91
2022/04/13 14:18:09;;;;;;;;;;;;;;;;;;;;;
2022/04/13 14:20:41;;;;;;;10.18;3.10;;;;;;;;;;6133050;23;20020;-92
2022/04/13 14:23:07;;;;;;;10.38;2.90;;;;;;;;;;6155226;23;20024;-91
2022/04/13 14:26:07;;;;;;;;;;;;;;;;;;;;;
2022/04/13 14:29:30;;;;;;;9.68;3.05;;;;;;;;;;6058033;23;20469;-92
2022/04/13 14:32:00;;;;;;;12.18;3.17;;;;;;;;;;6164278;23;20041;-91
2022/04/13 14:34:32;;;;;;;10.73;3.30;;;;;;;;;;6135329;23;20013;-91
2022/04/13 14:37:00;;;;;;;11.18;2.97;;;16.50;99.90;;;;;;6110911;23;20017;-90
2022/04/13 14:39:48;;;;;;;9.10;2.42;;;;;;;;;;6156311;23;20075;-91
2022/04/13 14:42:51;;;;;;;10.75;2.33;;;16.00;99.90;;;;;;6156432;23;20662;-90
2022/04/13 14:45:52;;;;;;;9.32;2.50;;;15.80;99.90;;;;;;6175730;23;20017;-89
2022/04/13 15:08:09;;;;;;;;;;;;;;;;;;;;;
2022/04/13 15:30:25;;;;;;;11.75;3.33;;;15.70;99.90;;;;;;5737815;24;20020;-88
2022/04/13 16:37:37;;;;;;;;;;;;;;;;;;;;;
2022/04/13 17:20:40;;;;;;;;;;;;;;;;;;;;;
